Airfield :
LOGIN :

Register | Disclaimer

   EN    FR    IT 

 










Legend :    VFR   Marginal VFR   IFR   Intensive IFR   Very Intensive IFR
Visi :
Ceiling :
>= 8 km
>= 3000ft
5 to 8 km
1000 to 3000 ft
1500m to 5 km
500 to 1000 ft
800 to 1500m
200 to 500 ft
< 800m
< 200 ft
Symbols :   Thunderstorms  Fog  Heavy snow  Heavy precipitations  Wind > 20 kt
SIGMETs :     Misc.  Thunderstorms  Icing  Turbulence  Mountain Waves  Volcanic Ashes







- Airport Elevation : 1367 ft
- IATA code : FDH


EDNY - Friedrichshafen

CURRENT METAR :
  • 231750Z 02007KT CAVOK 15/08 Q1012

EXPIRED METARs :
  • 231720Z 04007KT 9999 FEW048 15/08 Q1012
  • 231650Z 04011KT 9999 FEW060 16/09 Q1011
  • 231620Z 05012KT CAVOK 17/08 Q1011
  • 231550Z 05007KT CAVOK 18/08 Q1011
  • 231520Z 04008KT CAVOK 18/08 Q1011

TAF TAF EDNY
Valid from the 23 at 18:00 until the 24 at 18:00 UTC


231700Z 2318/2418 04008KT CAVOK
No reported NOTAMs for that airfield.



MET'MAP, your aeronautical weather chart ! - Copyright ORBIFLY December 2007 - Disclaimer

ORBIFLY MET'MAP TEAM :

Programming & Development : Alexandra Zaïnal
Concept & Development : Baudouin d'Aumeries
Co-Development & Prog : Marc-Olivier Méhu
Technical & hardware support : Manuel Goepfert

Contact : metmap@orbifly.com




SOURCES & CREDITS :

   NOAA